createdAt,value
2023-05-23T00:02:21.692Z,17.90
2023-05-23T00:04:58.364Z,17.90
2023-05-23T00:07:32.496Z,17.80
2023-05-23T00:10:05.234Z,17.80
2023-05-23T00:12:39.464Z,17.80
2023-05-23T00:15:13.606Z,17.70
2023-05-23T00:17:46.843Z,17.70
2023-05-23T00:20:19.443Z,17.70
2023-05-23T00:22:52.999Z,17.70
2023-05-23T00:25:25.756Z,17.70
2023-05-23T00:28:05.400Z,17.70
2023-05-23T00:30:38.027Z,17.60
2023-05-23T00:33:10.423Z,17.70
2023-05-23T00:35:46.763Z,17.70
2023-05-23T00:38:19.688Z,17.60
2023-05-23T00:40:51.902Z,17.70
2023-05-23T00:43:23.996Z,17.60
2023-05-23T00:45:58.187Z,17.60
2023-05-23T00:48:31.491Z,17.70
2023-05-23T00:51:03.767Z,17.60
2023-05-23T00:53:36.747Z,17.70
2023-05-23T00:56:09.390Z,17.70
2023-05-23T00:58:43.152Z,17.70
2023-05-23T01:01:17.301Z,17.70
2023-05-23T01:03:50.380Z,17.60
2023-05-23T01:06:22.660Z,17.70
2023-05-23T01:08:54.831Z,17.70
2023-05-23T01:11:35.309Z,17.70
2023-05-23T01:14:22.183Z,17.70
2023-05-23T01:17:11.392Z,17.70
2023-05-23T01:20:08.155Z,17.70
2023-05-23T01:23:01.469Z,17.70
2023-05-23T01:26:26.453Z,17.60
2023-05-23T01:29:13.699Z,17.60
2023-05-23T01:31:54.634Z,17.60
2023-05-23T01:34:30.362Z,17.60
2023-05-23T01:37:10.566Z,17.60
2023-05-23T01:39:43.017Z,17.50
2023-05-23T01:42:15.596Z,17.50
2023-05-23T01:44:48.154Z,17.50
2023-05-23T01:47:21.426Z,17.50
2023-05-23T01:49:55.664Z,17.50
2023-05-23T01:52:29.137Z,17.40
2023-05-23T01:55:02.363Z,17.40
2023-05-23T01:57:38.090Z,17.30
2023-05-23T02:00:12.382Z,17.30
2023-05-23T02:02:46.606Z,17.30
2023-05-23T02:05:18.812Z,17.30
2023-05-23T02:07:50.999Z,17.30
2023-05-23T02:10:23.296Z,17.30
2023-05-23T02:12:55.446Z,17.30
2023-05-23T02:15:27.464Z,17.30
2023-05-23T02:17:59.633Z,17.30
2023-05-23T02:20:34.038Z,17.30
2023-05-23T02:23:06.123Z,17.30
2023-05-23T02:25:39.059Z,17.30
2023-05-23T02:28:13.028Z,17.30
2023-05-23T02:30:45.536Z,17.30
2023-05-23T02:33:18.104Z,17.30
2023-05-23T02:35:51.548Z,17.30
2023-05-23T02:38:23.656Z,17.30
2023-05-23T02:40:57.807Z,17.30
2023-05-23T02:43:30.097Z,17.30
2023-05-23T02:46:02.152Z,17.30
2023-05-23T02:48:34.357Z,17.30
2023-05-23T02:51:06.938Z,17.30
2023-05-23T02:53:39.503Z,17.20
2023-05-23T02:56:13.520Z,17.20
2023-05-23T02:58:46.630Z,17.20
2023-05-23T03:01:18.921Z,17.20
2023-05-23T03:03:51.150Z,17.20
2023-05-23T03:06:23.253Z,17.20
2023-05-23T03:08:57.121Z,17.20
2023-05-23T03:11:30.045Z,17.20
2023-05-23T03:14:02.073Z,17.20
2023-05-23T03:16:34.392Z,17.20
2023-05-23T03:19:06.489Z,17.20
2023-05-23T03:21:39.194Z,17.20
2023-05-23T03:24:11.842Z,17.20
2023-05-23T03:26:44.238Z,17.20
2023-05-23T03:29:16.272Z,17.20
2023-05-23T03:31:48.283Z,17.20
2023-05-23T03:34:20.473Z,17.20
2023-05-23T03:36:54.781Z,17.20
2023-05-23T03:39:27.089Z,17.20
2023-05-23T03:41:59.291Z,17.20
2023-05-23T03:44:31.391Z,17.20
2023-05-23T03:47:03.572Z,17.20
2023-05-23T03:49:35.832Z,17.10
2023-05-23T03:52:08.121Z,17.10
2023-05-23T03:54:40.137Z,17.10
2023-05-23T03:57:12.752Z,17.10
2023-05-23T03:59:44.743Z,17.10
2023-05-23T04:02:17.021Z,17.10
2023-05-23T04:04:49.057Z,17.00
2023-05-23T04:07:22.931Z,17.00
2023-05-23T04:09:57.345Z,17.00
2023-05-23T04:12:30.705Z,17.00
2023-05-23T04:15:03.900Z,17.00
2023-05-23T04:17:39.066Z,17.00
2023-05-23T04:20:11.567Z,17.00
2023-05-23T04:22:44.175Z,17.00
2023-05-23T04:25:18.706Z,17.00
2023-05-23T04:27:51.073Z,17.00
2023-05-23T04:30:23.400Z,17.10
2023-05-23T04:32:58.246Z,17.10
2023-05-23T04:35:34.306Z,17.10
2023-05-23T04:38:10.225Z,17.10
2023-05-23T04:40:44.294Z,17.10
2023-05-23T04:43:16.437Z,17.10
2023-05-23T04:45:54.360Z,17.10
2023-05-23T04:48:27.618Z,17.10
2023-05-23T04:51:02.349Z,17.10
2023-05-23T04:53:41.044Z,17.20
2023-05-23T04:56:15.725Z,17.20
2023-05-23T04:58:49.337Z,17.20
2023-05-23T05:01:23.677Z,17.20
2023-05-23T05:03:56.648Z,17.20
2023-05-23T05:06:28.957Z,17.30
2023-05-23T05:09:01.917Z,17.30
2023-05-23T05:11:34.086Z,17.40
2023-05-23T05:14:12.298Z,17.40
2023-05-23T05:16:49.269Z,17.40
2023-05-23T05:19:22.594Z,17.40
2023-05-23T05:21:54.952Z,17.30
2023-05-23T05:24:29.343Z,17.30
2023-05-23T05:27:03.020Z,17.30
2023-05-23T05:29:36.661Z,17.30
2023-05-23T05:32:09.222Z,17.30
2023-05-23T05:34:43.320Z,17.30
2023-05-23T05:37:15.477Z,17.30
2023-05-23T05:39:47.760Z,17.30
2023-05-23T05:42:23.620Z,17.40
2023-05-23T05:44:56.071Z,17.40
2023-05-23T05:47:28.877Z,17.40
2023-05-23T05:50:01.758Z,17.40
2023-05-23T05:52:38.925Z,17.50
2023-05-23T05:55:12.630Z,17.50
2023-05-23T05:57:44.899Z,17.60
2023-05-23T06:00:19.144Z,17.60
2023-05-23T06:02:52.253Z,17.60
2023-05-23T06:05:28.132Z,17.60
2023-05-23T06:08:00.374Z,17.70
2023-05-23T06:10:32.873Z,17.70
2023-05-23T06:13:05.497Z,17.80
2023-05-23T06:15:37.683Z,17.80
2023-05-23T06:18:10.212Z,17.90
2023-05-23T06:20:42.618Z,18.00
2023-05-23T06:23:14.957Z,18.00
2023-05-23T06:25:47.089Z,18.00
2023-05-23T06:28:19.487Z,18.10
2023-05-23T06:30:51.566Z,18.00
2023-05-23T06:33:23.660Z,18.10
2023-05-23T06:35:55.798Z,18.00
2023-05-23T06:38:31.150Z,17.90
2023-05-23T06:41:07.436Z,17.90
2023-05-23T06:43:39.693Z,17.80
2023-05-23T06:46:12.029Z,17.80
2023-05-23T06:48:44.539Z,17.70
2023-05-23T06:51:16.794Z,17.70
2023-05-23T06:53:49.217Z,17.60
2023-05-23T06:56:22.557Z,17.60
2023-05-23T06:58:55.005Z,17.50
2023-05-23T07:01:27.340Z,17.50
2023-05-23T07:03:59.609Z,17.50
2023-05-23T07:06:32.918Z,17.50
2023-05-23T07:09:06.782Z,17.40
2023-05-23T07:11:41.025Z,17.40
2023-05-23T07:14:13.434Z,17.40
2023-05-23T07:16:46.670Z,17.50
2023-05-23T07:19:18.994Z,17.50
2023-05-23T07:21:51.501Z,17.60
2023-05-23T07:24:25.436Z,17.60
2023-05-23T07:26:57.887Z,17.70
2023-05-23T07:29:30.716Z,17.60
2023-05-23T07:32:03.328Z,17.70
2023-05-23T07:34:36.399Z,17.70
2023-05-23T07:37:08.955Z,17.70
2023-05-23T07:39:42.358Z,17.60
2023-05-23T07:42:14.708Z,17.70
2023-05-23T07:44:47.506Z,17.60
2023-05-23T07:47:19.933Z,17.60
2023-05-23T07:49:53.250Z,17.60
2023-05-23T07:52:25.632Z,17.50
2023-05-23T07:54:58.466Z,17.60
2023-05-23T07:57:31.800Z,17.60
2023-05-23T08:00:05.540Z,17.50
2023-05-23T08:02:38.770Z,17.50
2023-05-23T08:05:11.242Z,17.60
2023-05-23T08:07:43.427Z,17.50
2023-05-23T08:10:15.800Z,17.50
2023-05-23T08:12:48.135Z,17.50
2023-05-23T08:15:20.446Z,17.50
2023-05-23T08:17:57.470Z,17.40
2023-05-23T08:20:31.248Z,17.40
2023-05-23T08:23:03.626Z,17.40
2023-05-23T08:25:35.769Z,17.40
2023-05-23T08:28:08.061Z,17.50
2023-05-23T08:30:40.971Z,17.40
2023-05-23T08:33:13.633Z,17.40
2023-05-23T08:35:46.748Z,17.40
2023-05-23T08:38:22.132Z,17.40
2023-05-23T08:40:56.520Z,17.30
2023-05-23T08:43:32.012Z,17.30
2023-05-23T08:46:04.795Z,17.30
2023-05-23T08:48:38.954Z,17.40
2023-05-23T08:51:15.805Z,17.40
2023-05-23T08:53:51.647Z,17.40
2023-05-23T08:56:28.631Z,17.50
2023-05-23T08:59:01.197Z,17.50
2023-05-23T09:01:34.816Z,17.50
2023-05-23T09:04:08.767Z,17.40
2023-05-23T09:06:41.683Z,17.40
2023-05-23T09:09:14.047Z,17.40
2023-05-23T09:11:47.263Z,17.30
2023-05-23T09:14:20.021Z,17.30
2023-05-23T09:16:52.267Z,17.30
2023-05-23T09:19:24.800Z,17.30
2023-05-23T09:21:56.934Z,17.30
2023-05-23T09:24:39.484Z,17.30
2023-05-23T09:27:12.617Z,17.40
2023-05-23T09:29:47.478Z,17.40
2023-05-23T09:32:21.523Z,17.50
2023-05-23T09:35:00.721Z,17.50
2023-05-23T09:37:46.179Z,17.60
2023-05-23T09:40:18.627Z,17.80
2023-05-23T09:42:51.848Z,18.00
2023-05-23T09:45:30.636Z,18.10
2023-05-23T09:48:04.158Z,18.30
2023-05-23T09:50:45.732Z,18.30
2023-05-23T09:53:22.842Z,18.30
2023-05-23T09:55:58.242Z,18.30
2023-05-23T09:58:33.062Z,18.30
2023-05-23T10:01:10.112Z,18.30
2023-05-23T10:03:51.261Z,18.30
2023-05-23T10:06:40.236Z,18.30
2023-05-23T10:09:22.583Z,18.40
2023-05-23T10:12:32.983Z,18.50
2023-05-23T10:15:16.814Z,18.50
2023-05-23T10:17:52.607Z,18.50
2023-05-23T10:20:43.675Z,18.50
2023-05-23T10:23:19.457Z,18.60
2023-05-23T10:25:52.522Z,18.60
2023-05-23T10:28:27.283Z,18.70
2023-05-23T10:31:00.224Z,18.70
2023-05-23T10:33:40.195Z,18.70
2023-05-23T10:36:26.247Z,18.80
2023-05-23T10:39:16.117Z,18.80
2023-05-23T10:42:16.110Z,18.90
2023-05-23T10:44:52.664Z,19.00
2023-05-23T10:47:44.646Z,19.00
2023-05-23T10:50:34.472Z,19.10
2023-05-23T10:53:11.277Z,19.30
2023-05-23T10:55:49.389Z,19.40
2023-05-23T10:58:23.384Z,19.40
2023-05-23T11:00:59.691Z,19.40
2023-05-23T11:03:55.881Z,19.50
2023-05-23T11:06:43.120Z,19.60
2023-05-23T11:09:19.397Z,19.60
2023-05-23T11:12:05.474Z,19.70
2023-05-23T11:14:38.478Z,19.70
2023-05-23T11:17:32.176Z,19.80
2023-05-23T11:20:06.796Z,19.90
2023-05-23T11:22:40.264Z,19.90
2023-05-23T11:25:41.085Z,20.00
2023-05-23T11:28:17.444Z,19.90
2023-05-23T11:30:51.038Z,19.90
2023-05-23T11:33:23.437Z,19.80
2023-05-23T11:35:55.953Z,19.60
2023-05-23T11:38:28.334Z,19.60
2023-05-23T11:41:00.699Z,19.60
2023-05-23T11:43:32.920Z,19.60
2023-05-23T11:46:09.164Z,19.70
2023-05-23T11:48:45.755Z,19.70
2023-05-23T11:51:19.902Z,19.80
2023-05-23T11:53:52.596Z,19.80
2023-05-23T11:56:25.060Z,19.80
2023-05-23T11:58:57.937Z,20.00
2023-05-23T12:01:33.892Z,20.20
2023-05-23T12:04:13.895Z,20.30
2023-05-23T12:06:50.843Z,20.30
2023-05-23T12:09:23.366Z,20.20
2023-05-23T12:11:56.725Z,20.30
2023-05-23T12:14:29.413Z,20.40
2023-05-23T12:17:02.138Z,20.50
2023-05-23T12:19:36.037Z,20.80
2023-05-23T12:22:08.839Z,21.10
2023-05-23T12:24:48.912Z,21.20
2023-05-23T12:27:32.162Z,21.10
2023-05-23T12:30:10.891Z,21.10
2023-05-23T12:32:47.549Z,21.00
2023-05-23T12:35:19.879Z,21.00
2023-05-23T12:37:56.965Z,21.00
2023-05-23T12:40:32.759Z,21.10
2023-05-23T12:43:10.185Z,21.30
2023-05-23T12:45:43.587Z,21.50
2023-05-23T12:48:16.841Z,21.80
2023-05-23T12:50:49.105Z,22.00
2023-05-23T12:53:24.370Z,22.20
2023-05-23T12:55:57.814Z,22.20
2023-05-23T12:58:31.401Z,22.40
2023-05-23T13:01:04.443Z,22.50
2023-05-23T13:03:37.190Z,22.50
2023-05-23T13:06:09.759Z,22.50
2023-05-23T13:08:43.301Z,22.30
2023-05-23T13:11:16.090Z,22.10
2023-05-23T13:13:49.446Z,21.90
2023-05-23T13:16:22.507Z,21.90
2023-05-23T13:18:55.126Z,21.90
2023-05-23T13:21:27.802Z,21.70
2023-05-23T13:24:00.579Z,21.40
2023-05-23T13:26:32.931Z,21.10
2023-05-23T13:29:06.644Z,20.90
2023-05-23T13:31:39.073Z,20.70
2023-05-23T13:34:11.514Z,20.50
2023-05-23T13:36:44.299Z,20.40
2023-05-23T13:39:18.954Z,20.50
2023-05-23T13:41:54.172Z,20.60
2023-05-23T13:44:27.069Z,20.70
2023-05-23T13:47:12.965Z,20.70
2023-05-23T13:49:46.743Z,20.80
2023-05-23T13:52:20.407Z,20.80
2023-05-23T13:54:52.689Z,20.80
2023-05-23T13:57:24.964Z,20.80
2023-05-23T13:59:57.456Z,20.70
2023-05-23T14:02:32.197Z,20.70
2023-05-23T14:05:05.028Z,20.70
2023-05-23T14:07:39.199Z,20.70
2023-05-23T14:10:15.568Z,20.90
2023-05-23T14:12:48.851Z,21.10
2023-05-23T14:15:21.553Z,21.20
2023-05-23T14:17:55.608Z,21.40
2023-05-23T14:20:29.909Z,21.60
2023-05-23T14:23:02.856Z,21.60
2023-05-23T14:25:35.290Z,21.80
2023-05-23T14:28:08.210Z,21.80
2023-05-23T14:30:40.370Z,22.00
2023-05-23T14:33:12.825Z,22.30
2023-05-23T14:35:46.417Z,22.50
2023-05-23T14:38:19.618Z,22.40
2023-05-23T14:40:52.127Z,22.20
2023-05-23T14:43:26.055Z,22.00
2023-05-23T14:45:59.295Z,21.80
2023-05-23T14:48:32.607Z,21.60
2023-05-23T14:51:05.830Z,21.40
2023-05-23T14:53:38.410Z,21.30
2023-05-23T14:56:10.893Z,21.30
2023-05-23T14:58:46.031Z,21.30
2023-05-23T15:01:18.901Z,21.30
2023-05-23T15:03:51.332Z,21.40
2023-05-23T15:06:23.568Z,21.30
2023-05-23T15:08:57.046Z,21.30
2023-05-23T15:11:29.581Z,21.20
2023-05-23T15:14:03.728Z,21.10
2023-05-23T15:16:37.031Z,21.10
2023-05-23T15:19:09.405Z,21.10
2023-05-23T15:21:49.849Z,21.20
2023-05-23T15:24:23.415Z,21.20
2023-05-23T15:26:58.295Z,21.20
2023-05-23T15:29:35.865Z,21.20
2023-05-23T15:32:11.799Z,21.30
2023-05-23T15:34:44.466Z,21.50
2023-05-23T15:37:17.668Z,21.70
2023-05-23T15:39:49.941Z,21.70
2023-05-23T15:42:22.592Z,21.80
2023-05-23T15:44:54.699Z,21.80
2023-05-23T15:47:27.394Z,21.80
2023-05-23T15:49:59.698Z,21.70
2023-05-23T15:52:32.634Z,21.80
2023-05-23T15:55:05.846Z,21.70
2023-05-23T15:57:38.722Z,21.80
2023-05-23T16:00:11.452Z,21.70
2023-05-23T16:02:44.410Z,21.70
2023-05-23T16:05:16.897Z,21.70
2023-05-23T16:07:49.353Z,21.60
2023-05-23T16:10:23.482Z,21.40
2023-05-23T16:12:56.720Z,21.20
2023-05-23T16:15:29.001Z,21.10
2023-05-23T16:18:02.281Z,21.00
2023-05-23T16:20:35.926Z,21.00
2023-05-23T16:23:08.282Z,21.00
2023-05-23T16:25:40.696Z,21.00
2023-05-23T16:28:14.437Z,21.00
2023-05-23T16:30:48.533Z,21.00
2023-05-23T16:33:21.238Z,21.00
2023-05-23T16:35:53.661Z,20.90
2023-05-23T16:38:27.288Z,20.90
2023-05-23T16:40:59.735Z,20.70
2023-05-23T16:43:32.305Z,20.70
2023-05-23T16:46:05.301Z,20.50
2023-05-23T16:48:38.046Z,20.30
2023-05-23T16:51:10.543Z,20.10
2023-05-23T16:53:43.234Z,20.00
2023-05-23T16:56:16.245Z,19.80
2023-05-23T16:58:49.258Z,19.70
2023-05-23T17:01:22.761Z,19.60
2023-05-23T17:03:55.651Z,19.50
2023-05-23T17:06:28.552Z,19.50
2023-05-23T17:09:02.937Z,19.50
2023-05-23T17:11:36.120Z,19.50
2023-05-23T17:14:08.553Z,19.50
2023-05-23T17:16:41.501Z,19.50
2023-05-23T17:19:14.514Z,19.50
2023-05-23T17:21:47.122Z,19.50
2023-05-23T17:24:19.948Z,19.50
2023-05-23T17:26:52.569Z,19.50
2023-05-23T17:29:25.428Z,19.50
2023-05-23T17:31:58.538Z,19.50
2023-05-23T17:34:31.815Z,19.50
2023-05-23T17:37:04.549Z,19.40
2023-05-23T17:39:37.377Z,19.40
2023-05-23T17:42:10.810Z,19.30
2023-05-23T17:44:44.725Z,19.20
2023-05-23T17:47:18.708Z,19.10
2023-05-23T17:49:52.266Z,19.10
2023-05-23T17:52:25.488Z,19.00
2023-05-23T17:54:58.944Z,18.90
2023-05-23T17:57:31.929Z,18.80
2023-05-23T18:00:06.324Z,18.70
2023-05-23T18:02:39.604Z,18.60
2023-05-23T18:05:12.877Z,18.50
2023-05-23T18:07:45.980Z,18.40
2023-05-23T18:10:19.234Z,18.40
2023-05-23T18:12:52.867Z,18.30
2023-05-23T18:15:25.866Z,18.20
2023-05-23T18:17:58.403Z,18.20
2023-05-23T18:20:31.173Z,18.10
2023-05-23T18:23:03.891Z,18.10
2023-05-23T18:25:36.877Z,18.00
2023-05-23T18:28:10.086Z,18.10
2023-05-23T18:30:43.332Z,18.00
2023-05-23T18:33:16.843Z,18.00
2023-05-23T18:35:51.401Z,18.00
2023-05-23T18:38:23.919Z,18.00
2023-05-23T18:40:57.085Z,18.00
2023-05-23T18:43:30.017Z,17.90
2023-05-23T18:46:03.505Z,17.90
2023-05-23T18:48:36.815Z,17.90
2023-05-23T18:51:09.784Z,17.90
2023-05-23T18:53:43.749Z,17.80
2023-05-23T18:56:17.155Z,17.80
2023-05-23T18:58:51.680Z,17.70
2023-05-23T19:01:24.235Z,17.60
2023-05-23T19:03:57.936Z,17.50
2023-05-23T19:06:32.245Z,17.40
2023-05-23T19:09:10.069Z,17.30
2023-05-23T19:11:42.915Z,17.30
2023-05-23T19:14:15.632Z,17.20
2023-05-23T19:16:47.807Z,17.20
2023-05-23T19:19:20.828Z,17.20
2023-05-23T19:21:53.184Z,17.10
2023-05-23T19:24:25.549Z,17.10
2023-05-23T19:26:58.309Z,17.10
2023-05-23T19:29:31.166Z,17.00
2023-05-23T19:32:03.532Z,17.00
2023-05-23T19:34:36.356Z,17.00
2023-05-23T19:37:08.884Z,17.00
2023-05-23T19:39:45.774Z,16.90
2023-05-23T19:42:19.292Z,16.90
2023-05-23T19:44:52.467Z,16.90
2023-05-23T19:47:24.788Z,16.90
2023-05-23T19:49:57.454Z,16.80
2023-05-23T19:52:30.243Z,16.80
2023-05-23T19:55:04.165Z,16.70
2023-05-23T19:57:37.764Z,16.70
2023-05-23T20:00:11.001Z,16.70
2023-05-23T20:02:47.601Z,16.60
2023-05-23T20:05:22.841Z,16.60
2023-05-23T20:07:56.286Z,16.60
2023-05-23T20:10:29.011Z,16.50
2023-05-23T20:13:01.567Z,16.60
2023-05-23T20:15:39.992Z,16.60
2023-05-23T20:18:13.362Z,16.50
2023-05-23T20:20:46.258Z,16.50
2023-05-23T20:23:18.937Z,16.40
2023-05-23T20:25:52.467Z,16.30
2023-05-23T20:28:25.712Z,16.30
2023-05-23T20:30:58.589Z,16.20
2023-05-23T20:33:30.932Z,16.20
2023-05-23T20:36:05.669Z,16.10
2023-05-23T20:38:39.341Z,16.10
2023-05-23T20:41:11.949Z,16.10
2023-05-23T20:43:45.762Z,16.00
2023-05-23T20:46:19.570Z,16.00
2023-05-23T20:48:52.166Z,15.90
2023-05-23T20:51:24.336Z,15.90
2023-05-23T20:53:56.626Z,15.90
2023-05-23T20:56:29.448Z,15.80
2023-05-23T20:59:02.627Z,15.80
2023-05-23T21:01:35.105Z,15.70
2023-05-23T21:04:08.037Z,15.70
2023-05-23T21:06:40.167Z,15.60
2023-05-23T21:09:13.752Z,15.60
2023-05-23T21:11:47.487Z,15.50
2023-05-23T21:14:19.560Z,15.40
2023-05-23T21:16:52.124Z,15.40
2023-05-23T21:19:24.395Z,15.40
2023-05-23T21:21:56.688Z,15.40
2023-05-23T21:24:29.666Z,15.40
2023-05-23T21:27:02.169Z,15.30
2023-05-23T21:29:35.470Z,15.30
2023-05-23T21:32:07.715Z,15.30
2023-05-23T21:34:40.724Z,15.20
2023-05-23T21:37:13.897Z,15.20
2023-05-23T21:39:51.949Z,15.10
2023-05-23T21:42:25.551Z,15.10
2023-05-23T21:44:58.022Z,15.00
2023-05-23T21:47:30.406Z,15.00
2023-05-23T21:50:04.297Z,14.90
2023-05-23T21:52:37.118Z,14.90
2023-05-23T21:55:09.420Z,14.90
2023-05-23T21:57:41.698Z,14.80
2023-05-23T22:00:15.063Z,14.80
2023-05-23T22:02:49.931Z,14.80
2023-05-23T22:05:22.315Z,14.80
2023-05-23T22:07:54.449Z,14.80
2023-05-23T22:10:27.079Z,14.80
2023-05-23T22:12:59.142Z,14.80
2023-05-23T22:15:32.595Z,14.80
2023-05-23T22:18:06.677Z,14.70
2023-05-23T22:20:38.882Z,14.60
2023-05-23T22:23:16.726Z,14.50
2023-05-23T22:25:49.161Z,14.50
2023-05-23T22:28:21.375Z,14.30
2023-05-23T22:30:53.768Z,14.30
2023-05-23T22:33:25.981Z,14.20
2023-05-23T22:35:58.234Z,14.20
2023-05-23T22:38:31.381Z,14.10
2023-05-23T22:41:04.830Z,14.10
2023-05-23T22:43:37.268Z,14.10
2023-05-23T22:46:09.482Z,14.10
2023-05-23T22:48:42.021Z,14.00
2023-05-23T22:51:14.593Z,14.00
2023-05-23T22:53:47.533Z,13.90
2023-05-23T22:56:19.800Z,13.90
2023-05-23T22:58:53.386Z,13.90
2023-05-23T23:01:25.488Z,13.80
2023-05-23T23:03:57.706Z,13.80
2023-05-23T23:06:29.940Z,13.70
2023-05-23T23:09:02.180Z,13.60
2023-05-23T23:11:35.932Z,13.50
2023-05-23T23:14:08.136Z,13.50
2023-05-23T23:16:40.211Z,13.50
2023-05-23T23:19:13.508Z,13.30
2023-05-23T23:21:46.263Z,13.20
2023-05-23T23:24:18.454Z,13.20
2023-05-23T23:26:50.789Z,13.10
2023-05-23T23:29:22.923Z,13.10
2023-05-23T23:31:57.487Z,13.10
2023-05-23T23:34:30.654Z,13.10
2023-05-23T23:37:02.706Z,13.10
2023-05-23T23:39:35.034Z,13.10
2023-05-23T23:42:07.255Z,13.10
2023-05-23T23:44:39.389Z,13.10
2023-05-23T23:47:11.539Z,13.10
2023-05-23T23:49:43.660Z,13.10
2023-05-23T23:52:16.273Z,13.10
2023-05-23T23:54:48.653Z,13.10
2023-05-23T23:57:20.732Z,13.20
2023-05-23T23:59:52.957Z,13.10
